createdAt,value
2022-08-31T00:00:54.449Z,42.87
2022-08-31T00:03:47.800Z,42.88
2022-08-31T00:06:15.290Z,42.85
2022-08-31T00:08:41.923Z,42.87
2022-08-31T00:11:10.686Z,43.24
2022-08-31T00:13:41.934Z,43.42
2022-08-31T00:16:11.212Z,43.58
2022-08-31T00:18:38.428Z,43.53
2022-08-31T00:21:05.346Z,43.57
2022-08-31T00:23:36.468Z,43.61
2022-08-31T00:26:03.070Z,43.55
2022-08-31T00:28:29.689Z,43.67
2022-08-31T00:30:56.315Z,43.74
2022-08-31T00:33:27.242Z,43.87
2022-08-31T00:35:53.863Z,43.75
2022-08-31T00:38:21.361Z,44.07
2022-08-31T00:40:47.949Z,44.09
2022-08-31T00:43:44.269Z,44.14
2022-08-31T00:46:13.636Z,44.33
2022-08-31T00:48:57.234Z,44.52
2022-08-31T00:51:25.117Z,44.55
2022-08-31T00:53:52.971Z,44.66
2022-08-31T00:56:21.108Z,44.62
2022-08-31T00:58:54.638Z,44.82
2022-08-31T01:01:22.231Z,44.57
2022-08-31T01:03:49.200Z,44.65
2022-08-31T01:06:17.593Z,44.72
2022-08-31T01:08:46.166Z,45.11
2022-08-31T01:11:14.481Z,45.07
2022-08-31T01:13:45.899Z,45.09
2022-08-31T01:16:24.333Z,45.14
2022-08-31T01:18:54.090Z,45.17
2022-08-31T01:21:34.757Z,45.05
2022-08-31T01:24:06.166Z,45.10
2022-08-31T01:26:33.455Z,45.05
2022-08-31T01:29:03.704Z,45.56
2022-08-31T01:31:37.350Z,45.16
2022-08-31T01:34:08.931Z,45.30
2022-08-31T01:36:38.420Z,45.22
2022-08-31T01:39:07.302Z,45.35
2022-08-31T01:41:34.466Z,45.55
2022-08-31T01:44:05.292Z,45.63
2022-08-31T01:46:31.899Z,45.31
2022-08-31T01:49:00.181Z,45.51
2022-08-31T01:51:26.786Z,45.49
2022-08-31T01:53:54.782Z,45.48
2022-08-31T01:56:27.949Z,45.75
2022-08-31T01:58:58.050Z,45.44
2022-08-31T02:01:47.903Z,45.75
2022-08-31T02:04:19.130Z,45.67
2022-08-31T02:06:49.805Z,46.00
2022-08-31T02:09:18.306Z,45.86
2022-08-31T02:11:44.889Z,46.04
2022-08-31T02:14:13.405Z,45.82
2022-08-31T02:16:40.955Z,46.08
2022-08-31T02:19:08.881Z,46.16
2022-08-31T02:21:36.915Z,45.85
2022-08-31T02:24:05.604Z,46.01
2022-08-31T02:26:32.329Z,46.25
2022-08-31T02:28:59.104Z,46.23
2022-08-31T02:31:26.076Z,46.30
2022-08-31T02:33:57.721Z,46.26
2022-08-31T02:36:24.677Z,46.24
2022-08-31T02:38:51.533Z,46.21
2022-08-31T02:41:19.443Z,46.33
2022-08-31T02:43:50.353Z,46.25
2022-08-31T02:46:17.453Z,46.51
2022-08-31T02:48:53.134Z,46.52
2022-08-31T02:51:21.063Z,46.62
2022-08-31T02:53:51.845Z,46.24
2022-08-31T02:56:18.577Z,46.54
2022-08-31T02:58:45.177Z,46.61
2022-08-31T03:01:12.191Z,46.32
2022-08-31T03:03:43.889Z,46.40
2022-08-31T03:06:13.182Z,46.42
2022-08-31T03:08:39.697Z,46.78
2022-08-31T03:11:06.193Z,46.50
2022-08-31T03:13:35.862Z,46.73
2022-08-31T03:16:02.598Z,46.58
2022-08-31T03:18:29.173Z,46.63
2022-08-31T03:20:55.758Z,46.50
2022-08-31T03:23:23.953Z,46.74
2022-08-31T03:25:51.000Z,46.61
2022-08-31T03:28:18.101Z,46.60
2022-08-31T03:31:01.387Z,46.92
2022-08-31T03:33:33.617Z,46.53
2022-08-31T03:36:03.081Z,46.49
2022-08-31T03:38:29.579Z,46.95
2022-08-31T03:40:56.541Z,47.06
2022-08-31T03:43:27.696Z,46.79
2022-08-31T03:45:55.575Z,46.90
2022-08-31T03:48:22.982Z,47.12
2022-08-31T03:50:50.074Z,46.82
2022-08-31T03:53:27.323Z,46.85
2022-08-31T03:56:01.757Z,46.67
2022-08-31T03:58:31.770Z,46.81
2022-08-31T04:01:00.059Z,46.91
2022-08-31T04:03:47.179Z,46.54
2022-08-31T04:06:32.910Z,46.49
2022-08-31T04:09:17.666Z,46.84
2022-08-31T04:12:17.160Z,46.71
2022-08-31T04:15:04.697Z,46.80
2022-08-31T04:17:49.987Z,46.50
2022-08-31T04:20:42.875Z,46.26
2022-08-31T04:23:17.298Z,46.29
2022-08-31T04:25:48.507Z,46.50
2022-08-31T04:28:15.531Z,46.19
2022-08-31T04:30:43.420Z,46.47
2022-08-31T04:33:22.992Z,46.70
2022-08-31T04:35:49.601Z,46.14
2022-08-31T04:38:16.259Z,46.61
2022-08-31T04:40:44.881Z,46.16
2022-08-31T04:43:29.330Z,46.14
2022-08-31T04:45:55.954Z,46.44
2022-08-31T04:48:22.478Z,46.15
2022-08-31T04:50:50.626Z,46.20
2022-08-31T04:53:21.272Z,46.44
2022-08-31T04:55:49.971Z,46.33
2022-08-31T04:58:20.321Z,46.54
2022-08-31T05:00:50.502Z,46.15
2022-08-31T05:03:38.371Z,46.44
2022-08-31T05:06:05.139Z,46.47
2022-08-31T05:08:31.893Z,46.54
2022-08-31T05:10:59.611Z,46.17
2022-08-31T05:13:27.980Z,46.05
2022-08-31T05:15:55.591Z,46.22
2022-08-31T05:18:22.221Z,46.65
2022-08-31T05:20:55.269Z,46.10
2022-08-31T05:23:26.145Z,46.54
2022-08-31T05:25:52.733Z,46.32
2022-08-31T05:28:23.517Z,46.51
2022-08-31T05:30:50.185Z,46.39
2022-08-31T05:33:40.692Z,46.19
2022-08-31T05:36:07.992Z,46.16
2022-08-31T05:38:38.570Z,46.03
2022-08-31T05:41:06.492Z,46.38
2022-08-31T05:43:38.876Z,46.43
2022-08-31T05:46:10.512Z,46.16
2022-08-31T05:48:38.232Z,46.26
2022-08-31T05:51:12.952Z,46.18
2022-08-31T05:53:43.449Z,45.99
2022-08-31T05:56:13.721Z,46.25
2022-08-31T05:58:46.134Z,45.95
2022-08-31T06:01:18.721Z,45.94
2022-08-31T06:04:18.882Z,46.19
2022-08-31T06:06:45.496Z,45.82
2022-08-31T06:09:14.229Z,45.92
2022-08-31T06:11:42.641Z,45.65
2022-08-31T06:14:14.388Z,45.94
2022-08-31T06:16:44.363Z,45.97
2022-08-31T06:19:12.877Z,45.85
2022-08-31T06:21:49.832Z,45.97
2022-08-31T06:24:26.338Z,45.70
2022-08-31T06:26:59.583Z,45.83
2022-08-31T06:29:33.952Z,45.47
2022-08-31T06:32:06.104Z,45.74
2022-08-31T06:34:37.969Z,45.76
2022-08-31T06:37:05.894Z,45.49
2022-08-31T06:39:45.129Z,45.48
2022-08-31T06:42:41.337Z,45.37
2022-08-31T06:45:24.726Z,44.95
2022-08-31T06:48:01.610Z,44.90
2022-08-31T06:50:28.139Z,44.78
2022-08-31T06:52:55.809Z,44.75
2022-08-31T06:55:27.561Z,44.95
2022-08-31T06:58:12.555Z,44.84
2022-08-31T07:01:11.294Z,44.52
2022-08-31T07:04:04.447Z,44.24
2022-08-31T07:06:35.772Z,44.12
2022-08-31T07:09:05.206Z,44.26
2022-08-31T07:11:35.874Z,43.91
2022-08-31T07:14:08.433Z,44.23
2022-08-31T07:16:38.939Z,44.15
2022-08-31T07:19:06.583Z,43.83
2022-08-31T07:21:39.461Z,43.80
2022-08-31T07:24:10.920Z,43.43
2022-08-31T07:26:50.455Z,43.32
2022-08-31T07:29:23.579Z,43.34
2022-08-31T07:31:50.567Z,42.97
2022-08-31T07:34:21.287Z,42.99
2022-08-31T07:37:29.422Z,43.00
2022-08-31T07:40:15.258Z,42.79
2022-08-31T07:42:44.689Z,42.40
2022-08-31T07:45:22.628Z,42.31
2022-08-31T07:47:52.526Z,42.31
2022-08-31T07:50:21.415Z,42.31
2022-08-31T07:53:08.611Z,41.78
2022-08-31T07:55:47.823Z,41.95
2022-08-31T07:58:30.630Z,42.01
2022-08-31T08:00:59.874Z,41.46
2022-08-31T08:03:29.944Z,41.26
2022-08-31T08:06:17.311Z,41.40
2022-08-31T08:09:26.732Z,41.00
2022-08-31T08:12:04.201Z,40.97
2022-08-31T08:14:58.248Z,41.20
2022-08-31T08:17:57.045Z,41.12
2022-08-31T08:20:34.511Z,40.83
2022-08-31T08:23:27.897Z,40.42
2022-08-31T08:26:22.037Z,40.48
2022-08-31T08:29:07.902Z,40.24
2022-08-31T08:31:40.692Z,39.88
2022-08-31T08:34:15.251Z,39.74
2022-08-31T08:36:41.764Z,39.60
2022-08-31T08:39:10.256Z,39.62
2022-08-31T08:41:44.742Z,39.46
2022-08-31T08:44:18.040Z,39.51
2022-08-31T08:46:58.566Z,39.24
2022-08-31T08:49:49.787Z,39.02
2022-08-31T08:52:27.687Z,39.11
2022-08-31T08:54:59.636Z,38.92
2022-08-31T08:57:32.818Z,38.81
2022-08-31T09:00:07.989Z,38.57
2022-08-31T09:02:51.551Z,38.47
2022-08-31T09:05:35.088Z,38.18
2022-08-31T09:08:24.185Z,38.20
2022-08-31T09:11:18.587Z,38.20
2022-08-31T09:14:06.216Z,38.07
2022-08-31T09:16:51.994Z,38.08
2022-08-31T09:19:19.743Z,37.91
2022-08-31T09:21:51.071Z,37.92
2022-08-31T09:24:21.506Z,37.65
2022-08-31T09:27:18.054Z,37.42
2022-08-31T09:29:45.026Z,37.37
2022-08-31T09:32:26.268Z,37.46
2022-08-31T09:35:01.674Z,37.35
2022-08-31T09:37:40.310Z,37.24
2022-08-31T09:40:21.331Z,37.07
2022-08-31T09:43:07.176Z,37.29
2022-08-31T09:45:42.145Z,37.37
2022-08-31T09:48:09.340Z,37.16
2022-08-31T09:50:45.287Z,37.19
2022-08-31T09:53:16.541Z,37.39
2022-08-31T09:55:43.998Z,37.24
2022-08-31T09:58:12.445Z,37.09
2022-08-31T10:00:42.607Z,36.91
2022-08-31T10:03:22.290Z,36.76
2022-08-31T10:05:51.645Z,36.87
2022-08-31T10:08:42.160Z,36.91
2022-08-31T10:11:14.151Z,36.90
2022-08-31T10:13:57.252Z,36.88
2022-08-31T10:16:30.479Z,36.91
2022-08-31T10:19:17.894Z,36.85
2022-08-31T10:21:53.859Z,36.91
2022-08-31T10:24:33.723Z,36.72
2022-08-31T10:27:08.202Z,36.82
2022-08-31T10:29:41.456Z,36.69
2022-08-31T10:32:23.716Z,36.65
2022-08-31T10:35:05.968Z,36.60
2022-08-31T10:37:49.329Z,36.53
2022-08-31T10:40:21.447Z,36.36
2022-08-31T10:43:23.836Z,36.16
2022-08-31T10:45:53.013Z,36.03
2022-08-31T10:48:22.765Z,35.86
2022-08-31T10:50:59.065Z,35.87
2022-08-31T10:53:52.238Z,35.70
2022-08-31T10:56:25.686Z,35.70
2022-08-31T10:59:15.479Z,35.37
2022-08-31T11:01:56.729Z,35.18
2022-08-31T11:04:38.946Z,34.97
2022-08-31T11:07:40.784Z,34.90
2022-08-31T11:10:19.893Z,34.80
2022-08-31T11:13:00.871Z,34.77
2022-08-31T11:16:01.270Z,34.77
2022-08-31T11:19:09.393Z,34.50
2022-08-31T11:21:36.178Z,34.57
2022-08-31T11:24:23.945Z,34.20
2022-08-31T11:27:20.959Z,33.96
2022-08-31T11:29:56.661Z,33.73
2022-08-31T11:32:34.188Z,33.66
2022-08-31T11:35:08.144Z,33.55
2022-08-31T11:37:52.027Z,33.36
2022-08-31T11:40:41.644Z,33.21
2022-08-31T11:43:32.569Z,32.96
2022-08-31T11:46:26.939Z,32.81
2022-08-31T11:48:55.690Z,32.51
2022-08-31T11:51:35.118Z,32.46
2022-08-31T11:54:15.743Z,32.20
2022-08-31T11:56:47.299Z,32.38
2022-08-31T11:59:22.556Z,32.19
2022-08-31T12:01:49.293Z,32.21
2022-08-31T12:04:46.088Z,32.50
2022-08-31T12:07:35.884Z,32.29
2022-08-31T12:10:46.270Z,32.35
2022-08-31T12:13:26.383Z,32.42
2022-08-31T12:16:10.690Z,32.31
2022-08-31T12:18:47.032Z,32.32
2022-08-31T12:21:57.093Z,32.35
2022-08-31T12:24:32.394Z,32.23
2022-08-31T12:27:14.000Z,32.53
2022-08-31T12:29:41.560Z,32.40
2022-08-31T12:32:16.895Z,32.29
2022-08-31T12:34:50.897Z,32.00
2022-08-31T12:37:38.656Z,31.71
2022-08-31T12:40:21.927Z,31.82
2022-08-31T12:43:03.985Z,31.94
2022-08-31T12:45:42.085Z,31.61
2022-08-31T12:48:42.409Z,31.46
2022-08-31T12:51:27.330Z,31.24
2022-08-31T12:54:31.587Z,31.13
2022-08-31T12:57:20.947Z,31.36
2022-08-31T13:00:07.780Z,31.29
2022-08-31T13:02:42.532Z,30.89
2022-08-31T13:05:23.696Z,30.99
2022-08-31T13:07:50.679Z,30.82
2022-08-31T13:10:36.065Z,30.80
2022-08-31T13:13:06.303Z,30.83
2022-08-31T13:15:43.779Z,30.64
2022-08-31T13:18:14.235Z,30.45
2022-08-31T13:20:46.565Z,30.13
2022-08-31T13:23:23.788Z,29.75
2022-08-31T13:26:22.900Z,29.92
2022-08-31T13:28:54.690Z,30.18
2022-08-31T13:31:25.220Z,29.95
2022-08-31T13:34:19.090Z,29.81
2022-08-31T13:36:53.225Z,29.79
2022-08-31T13:39:25.977Z,29.85
2022-08-31T13:42:05.262Z,29.73
2022-08-31T13:44:39.761Z,29.70
2022-08-31T13:47:31.061Z,29.33
2022-08-31T13:50:13.140Z,29.22
2022-08-31T13:53:09.675Z,29.66
2022-08-31T13:55:43.569Z,29.39
2022-08-31T13:58:31.694Z,29.48
2022-08-31T14:01:18.791Z,29.24
2022-08-31T14:03:57.249Z,29.26
2022-08-31T14:06:28.196Z,28.93
2022-08-31T14:09:03.496Z,29.22
2022-08-31T14:11:31.584Z,29.43
2022-08-31T14:14:12.742Z,29.16
2022-08-31T14:16:51.976Z,28.84
2022-08-31T14:19:39.685Z,28.51
2022-08-31T14:22:40.131Z,28.43
2022-08-31T14:25:12.240Z,28.53
2022-08-31T14:27:43.121Z,28.50
2022-08-31T14:30:09.934Z,28.54
2022-08-31T14:32:36.441Z,28.73
2022-08-31T14:35:11.755Z,28.29
2022-08-31T14:37:44.088Z,28.27
2022-08-31T14:40:12.887Z,28.19
2022-08-31T14:42:39.757Z,28.29
2022-08-31T14:45:18.456Z,28.04
2022-08-31T14:47:47.862Z,27.84
2022-08-31T14:50:23.495Z,28.21
2022-08-31T14:52:55.055Z,28.19
2022-08-31T14:55:24.612Z,27.88
2022-08-31T14:57:58.196Z,28.14
2022-08-31T15:00:26.309Z,28.06
2022-08-31T15:02:53.705Z,27.75
2022-08-31T15:05:23.808Z,27.76
2022-08-31T15:07:53.010Z,27.83
2022-08-31T15:10:21.772Z,27.95
2022-08-31T15:12:50.381Z,27.90
2022-08-31T15:15:20.567Z,27.96
2022-08-31T15:17:50.501Z,28.06
2022-08-31T15:20:19.568Z,28.16
2022-08-31T15:22:47.866Z,28.00
2022-08-31T15:25:15.108Z,28.10
2022-08-31T15:27:44.386Z,28.31
2022-08-31T15:30:14.576Z,28.26
2022-08-31T15:32:45.090Z,28.11
2022-08-31T15:35:17.709Z,28.56
2022-08-31T15:37:52.965Z,28.40
2022-08-31T15:40:21.270Z,28.80
2022-08-31T15:42:50.227Z,28.49
2022-08-31T15:45:17.219Z,28.79
2022-08-31T15:48:02.338Z,28.97
2022-08-31T15:50:31.749Z,28.73
2022-08-31T15:53:08.228Z,28.53
2022-08-31T15:55:38.818Z,28.93
2022-08-31T15:58:05.337Z,28.92
2022-08-31T16:00:32.555Z,29.08
2022-08-31T16:03:02.009Z,29.02
2022-08-31T16:05:35.828Z,29.26
2022-08-31T16:08:03.192Z,29.31
2022-08-31T16:10:30.748Z,29.31
2022-08-31T16:12:57.318Z,29.40
2022-08-31T16:15:25.007Z,29.68
2022-08-31T16:17:57.083Z,29.55
2022-08-31T16:20:23.625Z,29.59
2022-08-31T16:22:50.177Z,29.69
2022-08-31T16:25:17.604Z,29.97
2022-08-31T16:27:47.169Z,29.92
2022-08-31T16:30:14.175Z,29.75
2022-08-31T16:32:40.794Z,29.81
2022-08-31T16:35:07.934Z,29.97
2022-08-31T16:37:34.592Z,30.00
2022-08-31T16:40:01.121Z,29.87
2022-08-31T16:42:28.069Z,30.10
2022-08-31T16:45:01.205Z,30.12
2022-08-31T16:47:29.121Z,30.07
2022-08-31T16:49:55.802Z,30.46
2022-08-31T16:52:27.101Z,30.44
2022-08-31T16:54:57.962Z,30.35
2022-08-31T16:57:28.249Z,30.29
2022-08-31T16:59:57.230Z,30.50
2022-08-31T17:02:24.858Z,30.57
2022-08-31T17:04:53.425Z,30.86
2022-08-31T17:07:22.103Z,30.85
2022-08-31T17:09:48.840Z,30.77
2022-08-31T17:12:21.346Z,30.96
2022-08-31T17:14:52.060Z,31.11
2022-08-31T17:17:21.977Z,31.16
2022-08-31T17:19:49.019Z,31.09
2022-08-31T17:22:24.366Z,31.27
2022-08-31T17:24:57.358Z,31.29
2022-08-31T17:27:25.290Z,31.49
2022-08-31T17:29:53.789Z,31.38
2022-08-31T17:32:23.241Z,31.49
2022-08-31T17:34:52.112Z,31.45
2022-08-31T17:37:36.438Z,31.59
2022-08-31T17:40:07.951Z,31.59
2022-08-31T17:42:35.132Z,31.86
2022-08-31T17:45:05.657Z,31.51
2022-08-31T17:47:33.070Z,31.97
2022-08-31T17:50:00.207Z,31.82
2022-08-31T17:52:27.259Z,31.92
2022-08-31T17:54:53.801Z,32.11
2022-08-31T17:57:24.783Z,31.99
2022-08-31T17:59:52.921Z,32.29
2022-08-31T18:02:26.426Z,32.26
2022-08-31T18:04:53.341Z,32.29
2022-08-31T18:07:20.596Z,32.35
2022-08-31T18:09:47.258Z,32.40
2022-08-31T18:12:15.840Z,32.61
2022-08-31T18:14:45.195Z,32.85
2022-08-31T18:17:15.720Z,33.31
2022-08-31T18:19:42.254Z,32.80
2022-08-31T18:22:08.954Z,32.92
2022-08-31T18:24:40.049Z,32.92
2022-08-31T18:27:09.100Z,33.18
2022-08-31T18:29:37.069Z,32.98
2022-08-31T18:32:06.391Z,33.16
2022-08-31T18:34:36.705Z,33.26
2022-08-31T18:37:04.614Z,33.39
2022-08-31T18:39:52.484Z,33.53
2022-08-31T18:42:39.365Z,33.66
2022-08-31T18:45:16.751Z,33.80
2022-08-31T18:47:56.902Z,33.92
2022-08-31T18:50:35.184Z,33.77
2022-08-31T18:53:04.240Z,33.97
2022-08-31T18:55:38.072Z,34.14
2022-08-31T18:58:04.939Z,34.42
2022-08-31T19:00:33.082Z,34.26
2022-08-31T19:03:00.357Z,34.38
2022-08-31T19:05:28.233Z,34.35
2022-08-31T19:07:55.839Z,34.43
2022-08-31T19:10:23.162Z,34.58
2022-08-31T19:12:49.942Z,34.74
2022-08-31T19:15:21.040Z,34.79
2022-08-31T19:17:49.277Z,34.83
2022-08-31T19:20:16.926Z,34.85
2022-08-31T19:22:43.590Z,35.11
2022-08-31T19:25:10.651Z,35.15
2022-08-31T19:27:37.734Z,35.15
2022-08-31T19:30:05.991Z,35.49
2022-08-31T19:32:33.581Z,35.47
2022-08-31T19:35:00.450Z,35.30
2022-08-31T19:37:27.617Z,35.26
2022-08-31T19:39:54.130Z,35.53
2022-08-31T19:42:39.796Z,35.56
2022-08-31T19:45:40.849Z,35.55
2022-08-31T19:48:01.397Z,35.43
2022-08-31T19:50:28.409Z,35.51
2022-08-31T19:52:54.991Z,35.70
2022-08-31T19:55:23.085Z,35.68
2022-08-31T19:57:49.788Z,35.85
2022-08-31T20:00:16.633Z,35.77
2022-08-31T20:02:44.515Z,35.64
2022-08-31T20:05:12.471Z,35.99
2022-08-31T20:07:41.345Z,35.82
2022-08-31T20:10:08.898Z,36.11
2022-08-31T20:12:35.487Z,35.86
2022-08-31T20:15:02.299Z,35.89
2022-08-31T20:17:30.074Z,36.26
2022-08-31T20:20:00.819Z,36.05
2022-08-31T20:22:28.096Z,36.26
2022-08-31T20:25:00.775Z,36.32
2022-08-31T20:27:28.106Z,36.61
2022-08-31T20:29:56.225Z,36.85
2022-08-31T20:32:23.458Z,36.40
2022-08-31T20:34:51.162Z,36.61
2022-08-31T20:37:17.676Z,36.54
2022-08-31T20:39:44.186Z,36.55
2022-08-31T20:42:10.679Z,36.50
2022-08-31T20:45:02.325Z,36.72
2022-08-31T20:47:47.543Z,36.85
2022-08-31T20:50:14.911Z,36.57
2022-08-31T20:52:41.513Z,36.77
2022-08-31T20:55:12.331Z,36.52
2022-08-31T20:57:41.687Z,36.49
2022-08-31T21:00:19.179Z,36.38
2022-08-31T21:02:47.038Z,36.23
2022-08-31T21:05:37.419Z,36.14
2022-08-31T21:08:03.165Z,36.48
2022-08-31T21:10:37.450Z,36.37
2022-08-31T21:13:07.040Z,36.12
2022-08-31T21:15:33.866Z,36.13
2022-08-31T21:18:01.242Z,35.97
2022-08-31T21:20:27.796Z,36.00
2022-08-31T21:22:54.435Z,35.63
2022-08-31T21:25:20.942Z,36.00
2022-08-31T21:27:47.460Z,35.74
2022-08-31T21:30:14.070Z,35.70
2022-08-31T21:32:40.610Z,35.60
2022-08-31T21:35:10.636Z,35.33
2022-08-31T21:37:37.607Z,35.56
2022-08-31T21:40:07.661Z,35.08
2022-08-31T21:42:34.186Z,35.33
2022-08-31T21:45:01.363Z,35.28
2022-08-31T21:47:28.636Z,35.52
2022-08-31T21:49:55.157Z,35.48
2022-08-31T21:52:21.670Z,35.11
2022-08-31T21:54:48.272Z,35.22
2022-08-31T21:57:15.598Z,35.02
2022-08-31T21:59:42.163Z,35.59
2022-08-31T22:02:11.452Z,35.30
2022-08-31T22:04:40.746Z,35.02
2022-08-31T22:07:08.073Z,34.87
2022-08-31T22:09:36.227Z,35.22
2022-08-31T22:12:06.516Z,35.05
2022-08-31T22:14:38.899Z,35.09
2022-08-31T22:17:07.688Z,34.89
2022-08-31T22:19:37.955Z,34.88
2022-08-31T22:22:11.715Z,35.10
2022-08-31T22:24:41.251Z,35.12
2022-08-31T22:27:10.246Z,35.17
2022-08-31T22:29:38.458Z,34.84
2022-08-31T22:32:11.998Z,35.00
2022-08-31T22:34:40.538Z,34.98
2022-08-31T22:37:08.964Z,35.16
2022-08-31T22:39:35.842Z,35.05
2022-08-31T22:42:02.548Z,35.37
2022-08-31T22:44:35.218Z,35.18
2022-08-31T22:47:03.073Z,35.18
2022-08-31T22:49:30.028Z,35.42
2022-08-31T22:51:57.642Z,35.60
2022-08-31T22:54:25.613Z,35.68
2022-08-31T22:56:53.697Z,35.43
2022-08-31T22:59:27.075Z,35.70
2022-08-31T23:02:02.045Z,35.83
2022-08-31T23:04:34.392Z,35.44
2022-08-31T23:07:01.875Z,35.73
2022-08-31T23:09:30.908Z,35.64
2022-08-31T23:12:00.748Z,35.92
2022-08-31T23:14:32.696Z,35.81
2022-08-31T23:17:01.113Z,35.85
2022-08-31T23:19:36.580Z,35.96
2022-08-31T23:22:07.497Z,35.93
2022-08-31T23:24:38.986Z,36.08
2022-08-31T23:27:05.972Z,35.96
2022-08-31T23:29:35.729Z,36.49
2022-08-31T23:32:02.913Z,36.39
2022-08-31T23:34:30.131Z,36.26
2022-08-31T23:36:57.089Z,36.74
2022-08-31T23:39:24.513Z,36.93
2022-08-31T23:41:53.269Z,36.66
2022-08-31T23:44:21.419Z,36.97
2022-08-31T23:46:48.579Z,37.23
2022-08-31T23:49:17.851Z,37.28
2022-08-31T23:51:45.191Z,37.12
2022-08-31T23:54:18.286Z,37.31
2022-08-31T23:56:46.998Z,37.70
2022-08-31T23:59:18.771Z,37.88
